sensor_id;sensor_type;location;lat;lon;timestamp;pressure;altitude;pressure_sealevel;temperature;humidity
64679;BME280;51094;53.864;27.676;2023-05-12T00:00:09;100274.13;;;9.17;53.41
64679;BME280;51094;53.864;27.676;2023-05-12T00:02:40;100063.97;;;8.14;52.84
64679;BME280;51094;53.864;27.676;2023-05-12T00:05:08;100136.03;;;8.60;52.36
64679;BME280;51094;53.864;27.676;2023-05-12T00:07:35;100230.56;;;9.24;52.60
64679;BME280;51094;53.864;27.676;2023-05-12T00:10:02;100236.66;;;9.23;51.92
64679;BME280;51094;53.864;27.676;2023-05-12T00:12:29;100238.28;;;9.25;51.85
64679;BME280;51094;53.864;27.676;2023-05-12T00:14:56;100241.63;;;9.27;51.75
64679;BME280;51094;53.864;27.676;2023-05-12T00:17:23;100126.63;;;8.58;51.38
64679;BME280;51094;53.864;27.676;2023-05-12T00:19:50;100184.53;;;8.76;51.58
64679;BME280;51094;53.864;27.676;2023-05-12T00:22:17;99967.50;;;7.55;51.75
64679;BME280;51094;53.864;27.676;2023-05-12T00:24:43;100155.13;;;8.41;52.44
64679;BME280;51094;53.864;27.676;2023-05-12T00:27:10;100123.94;;;8.42;52.09
64679;BME280;51094;53.864;27.676;2023-05-12T00:29:37;99989.03;;;7.56;52.82
64679;BME280;51094;53.864;27.676;2023-05-12T00:32:04;100239.78;;;8.95;53.17
64679;BME280;51094;53.864;27.676;2023-05-12T00:34:31;100183.56;;;8.42;53.75
64679;BME280;51094;53.864;27.676;2023-05-12T00:36:58;100193.00;;;8.43;53.44
64679;BME280;51094;53.864;27.676;2023-05-12T00:39:25;100200.00;;;8.22;53.11
64679;BME280;51094;53.864;27.676;2023-05-12T00:41:58;100142.09;;;8.05;53.90
64679;BME280;51094;53.864;27.676;2023-05-12T00:44:27;100250.41;;;8.72;53.80
64679;BME280;51094;53.864;27.676;2023-05-12T00:46:54;100215.78;;;8.37;53.72
64679;BME280;51094;53.864;27.676;2023-05-12T00:49:21;100266.03;;;8.70;53.85
64679;BME280;51094;53.864;27.676;2023-05-12T00:51:48;100198.69;;;8.14;54.01
64679;BME280;51094;53.864;27.676;2023-05-12T00:54:15;100224.03;;;8.45;53.43
64679;BME280;51094;53.864;27.676;2023-05-12T00:56:42;100248.97;;;8.66;54.09
64679;BME280;51094;53.864;27.676;2023-05-12T00:59:09;100154.44;;;7.99;53.67
64679;BME280;51094;53.864;27.676;2023-05-12T01:01:39;100196.97;;;8.31;53.73
64679;BME280;51094;53.864;27.676;2023-05-12T01:04:07;100253.31;;;8.65;53.70
64679;BME280;51094;53.864;27.676;2023-05-12T01:06:46;100143.28;;;7.97;53.21
64679;BME280;51094;53.864;27.676;2023-05-12T01:09:15;100251.25;;;8.72;52.81
64679;BME280;51094;53.864;27.676;2023-05-12T01:11:43;100014.66;;;7.24;52.45
64679;BME280;51094;53.864;27.676;2023-05-12T01:14:10;100202.53;;;8.43;52.66
64679;BME280;51094;53.864;27.676;2023-05-12T01:16:42;100179.28;;;8.41;51.57
64679;BME280;51094;53.864;27.676;2023-05-12T01:19:23;100186.16;;;8.42;51.54
64679;BME280;51094;53.864;27.676;2023-05-12T01:21:57;100253.66;;;8.94;51.24
64679;BME280;51094;53.864;27.676;2023-05-12T01:24:28;100184.59;;;8.38;51.42
64679;BME280;51094;53.864;27.676;2023-05-12T01:26:57;100287.53;;;8.91;51.06
64679;BME280;51094;53.864;27.676;2023-05-12T01:29:24;100178.38;;;8.42;51.41
64679;BME280;51094;53.864;27.676;2023-05-12T01:31:52;100268.47;;;8.92;51.09
64679;BME280;51094;53.864;27.676;2023-05-12T01:34:19;100172.28;;;8.43;51.05
64679;BME280;51094;53.864;27.676;2023-05-12T01:36:49;100052.91;;;7.74;50.51
64679;BME280;51094;53.864;27.676;2023-05-12T01:39:18;99425.88;;;3.99;50.39
64679;BME280;51094;53.864;27.676;2023-05-12T01:41:52;100091.81;;;7.73;50.19
64679;BME280;51094;53.864;27.676;2023-05-12T01:44:22;100329.03;;;9.10;50.28
64679;BME280;51094;53.864;27.676;2023-05-12T01:46:59;100325.41;;;9.12;49.67
64679;BME280;51094;53.864;27.676;2023-05-12T01:49:31;99506.94;;;4.31;49.77
64679;BME280;51094;53.864;27.676;2023-05-12T01:52:08;99412.38;;;3.74;49.33
64679;BME280;51094;53.864;27.676;2023-05-12T01:54:47;99906.63;;;6.34;49.82
64679;BME280;51094;53.864;27.676;2023-05-12T02:02:30;100265.22;;;9.23;49.50
64679;BME280;51094;53.864;27.676;2023-05-12T02:05:45;100324.00;;;9.24;49.40
64679;BME280;51094;53.864;27.676;2023-05-12T02:08:50;100201.47;;;8.09;49.42
64679;BME280;51094;53.864;27.676;2023-05-12T02:11:18;99474.69;;;4.43;49.66
64679;BME280;51094;53.864;27.676;2023-05-12T02:14:21;99547.75;;;4.81;49.12
64679;BME280;51094;53.864;27.676;2023-05-12T02:16:49;100115.50;;;8.20;49.41
64679;BME280;51094;53.864;27.676;2023-05-12T02:19:20;100278.56;;;9.15;49.98
64679;BME280;51094;53.864;27.676;2023-05-12T02:21:47;99911.72;;;6.93;50.22
64679;BME280;51094;53.864;27.676;2023-05-12T02:24:14;100276.03;;;9.14;50.23
64679;BME280;51094;53.864;27.676;2023-05-12T02:26:43;100209.97;;;8.67;49.81
64679;BME280;51094;53.864;27.676;2023-05-12T02:29:11;100294.28;;;9.12;50.99
64679;BME280;51094;53.864;27.676;2023-05-12T02:31:38;100271.94;;;9.10;51.02
64679;BME280;51094;53.864;27.676;2023-05-12T02:34:13;100229.94;;;8.84;50.82
64679;BME280;51094;53.864;27.676;2023-05-12T02:36:40;100082.25;;;7.92;50.65
64679;BME280;51094;53.864;27.676;2023-05-12T02:39:07;100277.66;;;9.16;51.25
64679;BME280;51094;53.864;27.676;2023-05-12T02:41:34;99987.22;;;7.39;51.33
64679;BME280;51094;53.864;27.676;2023-05-12T02:44:01;99967.25;;;7.24;51.06
64679;BME280;51094;53.864;27.676;2023-05-12T02:46:28;100028.50;;;7.61;51.42
64679;BME280;51094;53.864;27.676;2023-05-12T02:48:55;100209.59;;;8.58;51.64
64679;BME280;51094;53.864;27.676;2023-05-12T02:51:22;100166.31;;;8.41;51.90
64679;BME280;51094;53.864;27.676;2023-05-12T02:53:49;100280.25;;;9.16;51.77
64679;BME280;51094;53.864;27.676;2023-05-12T02:56:16;100044.09;;;7.78;52.19
64679;BME280;51094;53.864;27.676;2023-05-12T02:58:43;100198.47;;;8.73;52.48
64679;BME280;51094;53.864;27.676;2023-05-12T03:01:11;100276.66;;;9.19;52.34
64679;BME280;51094;53.864;27.676;2023-05-12T03:03:39;100105.84;;;8.05;51.96
64679;BME280;51094;53.864;27.676;2023-05-12T03:06:07;100131.03;;;8.39;52.28
64679;BME280;51094;53.864;27.676;2023-05-12T03:08:34;100278.13;;;9.24;51.91
64679;BME280;51094;53.864;27.676;2023-05-12T03:11:01;100311.00;;;9.24;52.13
64679;BME280;51094;53.864;27.676;2023-05-12T03:13:28;100097.03;;;8.09;51.89
64679;BME280;51094;53.864;27.676;2023-05-12T03:15:55;100286.38;;;9.32;52.34
64679;BME280;51094;53.864;27.676;2023-05-12T03:18:27;100177.81;;;8.72;51.60
64679;BME280;51094;53.864;27.676;2023-05-12T03:20:54;100281.81;;;9.38;51.63
64679;BME280;51094;53.864;27.676;2023-05-12T03:23:23;100307.00;;;9.36;51.39
64679;BME280;51094;53.864;27.676;2023-05-12T03:25:50;100298.00;;;9.43;51.21
64679;BME280;51094;53.864;27.676;2023-05-12T03:28:17;100282.94;;;9.49;50.10
64679;BME280;51094;53.864;27.676;2023-05-12T03:30:44;100177.97;;;8.86;50.26
64679;BME280;51094;53.864;27.676;2023-05-12T03:33:10;100215.38;;;9.16;50.38
64679;BME280;51094;53.864;27.676;2023-05-12T03:35:38;100140.72;;;8.70;50.05
64679;BME280;51094;53.864;27.676;2023-05-12T03:38:04;100272.78;;;9.45;49.73
64679;BME280;51094;53.864;27.676;2023-05-12T03:40:31;100292.31;;;9.69;49.15
64679;BME280;51094;53.864;27.676;2023-05-12T03:42:58;100264.81;;;9.65;49.72
64679;BME280;51094;53.864;27.676;2023-05-12T03:45:25;100319.28;;;9.84;49.31
64679;BME280;51094;53.864;27.676;2023-05-12T03:47:52;100156.47;;;9.01;48.72
64679;BME280;51094;53.864;27.676;2023-05-12T03:50:19;100207.25;;;9.57;47.83
64679;BME280;51094;53.864;27.676;2023-05-12T03:52:46;100165.09;;;9.02;47.48
64679;BME280;51094;53.864;27.676;2023-05-12T03:55:13;100233.47;;;9.85;47.74
64679;BME280;51094;53.864;27.676;2023-05-12T03:57:41;100201.25;;;9.72;47.04
64679;BME280;51094;53.864;27.676;2023-05-12T04:00:08;100241.72;;;10.09;47.11
64679;BME280;51094;53.864;27.676;2023-05-12T04:02:41;100302.69;;;10.52;46.20
64679;BME280;51094;53.864;27.676;2023-05-12T04:05:09;100297.59;;;10.66;46.51
64679;BME280;51094;53.864;27.676;2023-05-12T04:07:35;100134.81;;;9.68;45.88
64679;BME280;51094;53.864;27.676;2023-05-12T04:10:03;100295.22;;;10.93;45.38
64679;BME280;51094;53.864;27.676;2023-05-12T04:12:30;100283.97;;;10.93;44.89
64679;BME280;51094;53.864;27.676;2023-05-12T04:14:57;100148.69;;;10.16;44.71
64679;BME280;51094;53.864;27.676;2023-05-12T04:17:24;100251.41;;;10.86;44.87
64679;BME280;51094;53.864;27.676;2023-05-12T04:19:51;100338.53;;;11.26;44.36
64679;BME280;51094;53.864;27.676;2023-05-12T04:22:19;100314.47;;;11.37;44.15
64679;BME280;51094;53.864;27.676;2023-05-12T04:24:47;100303.25;;;11.50;43.84
64679;BME280;51094;53.864;27.676;2023-05-12T04:27:14;100073.31;;;10.31;43.06
64679;BME280;51094;53.864;27.676;2023-05-12T04:29:41;100304.31;;;11.76;42.90
64679;BME280;51094;53.864;27.676;2023-05-12T04:32:08;100306.44;;;11.85;42.95
64679;BME280;51094;53.864;27.676;2023-05-12T04:34:35;100303.28;;;11.94;42.33
64679;BME280;51094;53.864;27.676;2023-05-12T04:37:02;100245.25;;;11.62;42.40
64679;BME280;51094;53.864;27.676;2023-05-12T04:39:29;100305.16;;;12.07;42.25
64679;BME280;51094;53.864;27.676;2023-05-12T04:41:59;100229.66;;;11.47;42.39
64679;BME280;51094;53.864;27.676;2023-05-12T04:44:27;100208.94;;;11.74;42.05
64679;BME280;51094;53.864;27.676;2023-05-12T04:46:54;100316.13;;;12.40;41.72
64679;BME280;51094;53.864;27.676;2023-05-12T04:49:22;100077.41;;;11.10;41.48
64679;BME280;51094;53.864;27.676;2023-05-12T04:51:49;100327.84;;;12.61;41.06
64679;BME280;51094;53.864;27.676;2023-05-12T04:54:16;100196.97;;;11.99;41.53
64679;BME280;51094;53.864;27.676;2023-05-12T04:56:43;100140.56;;;11.84;40.68
64679;BME280;51094;53.864;27.676;2023-05-12T04:59:10;100242.53;;;12.49;40.68
64679;BME280;51094;53.864;27.676;2023-05-12T05:01:37;100299.34;;;12.99;41.06
64679;BME280;51094;53.864;27.676;2023-05-12T05:04:05;100307.78;;;13.17;40.79
64679;BME280;51094;53.864;27.676;2023-05-12T05:06:31;100224.91;;;12.80;40.91
64679;BME280;51094;53.864;27.676;2023-05-12T05:08:59;100219.66;;;12.94;40.48
64679;BME280;51094;53.864;27.676;2023-05-12T05:11:27;100278.91;;;13.46;40.10
64679;BME280;51094;53.864;27.676;2023-05-12T05:13:54;100313.66;;;13.73;39.74
64679;BME280;51094;53.864;27.676;2023-05-12T05:16:21;100258.34;;;13.41;39.18
64679;BME280;51094;53.864;27.676;2023-05-12T05:18:49;100176.84;;;13.09;38.56
64679;BME280;51094;53.864;27.676;2023-05-12T05:21:18;100249.22;;;13.47;38.59
64679;BME280;51094;53.864;27.676;2023-05-12T05:23:45;100351.34;;;14.09;38.24
64679;BME280;51094;53.864;27.676;2023-05-12T05:26:13;100246.84;;;13.69;38.21
64679;BME280;51094;53.864;27.676;2023-05-12T05:28:40;100208.59;;;13.68;38.49
64679;BME280;51094;53.864;27.676;2023-05-12T05:31:07;100074.47;;;13.04;38.42
64679;BME280;51094;53.864;27.676;2023-05-12T05:33:34;100324.84;;;14.64;37.91
64679;BME280;51094;53.864;27.676;2023-05-12T05:36:02;100308.34;;;14.75;37.82
64679;BME280;51094;53.864;27.676;2023-05-12T05:38:30;100253.25;;;14.52;36.97
64679;BME280;51094;53.864;27.676;2023-05-12T05:40:58;100300.63;;;14.97;36.69
64679;BME280;51094;53.864;27.676;2023-05-12T05:43:26;100120.81;;;13.89;36.43
64679;BME280;51094;53.864;27.676;2023-05-12T05:45:53;100315.28;;;15.23;36.74
64679;BME280;51094;53.864;27.676;2023-05-12T05:48:21;100257.72;;;15.11;36.06
64679;BME280;51094;53.864;27.676;2023-05-12T05:50:52;100066.59;;;13.80;35.44
64679;BME280;51094;53.864;27.676;2023-05-12T05:53:22;100300.31;;;15.60;35.46
64679;BME280;51094;53.864;27.676;2023-05-12T05:55:50;100174.09;;;14.96;35.92
64679;BME280;51094;53.864;27.676;2023-05-12T05:58:16;100305.16;;;15.89;35.20
64679;BME280;51094;53.864;27.676;2023-05-12T06:00:44;100294.81;;;15.99;34.25
64679;BME280;51094;53.864;27.676;2023-05-12T06:03:11;100260.69;;;15.87;33.79
64679;BME280;51094;53.864;27.676;2023-05-12T06:05:38;100269.03;;;16.04;33.79
64679;BME280;51094;53.864;27.676;2023-05-12T06:08:08;100212.88;;;15.73;33.71
64679;BME280;51094;53.864;27.676;2023-05-12T06:10:36;100296.72;;;16.41;34.20
64679;BME280;51094;53.864;27.676;2023-05-12T06:13:03;100293.34;;;16.61;33.66
64679;BME280;51094;53.864;27.676;2023-05-12T06:15:31;100176.72;;;16.10;34.28
64679;BME280;51094;53.864;27.676;2023-05-12T06:17:58;100297.31;;;17.10;34.10
64679;BME280;51094;53.864;27.676;2023-05-12T06:20:25;100301.81;;;17.19;32.63
64679;BME280;51094;53.864;27.676;2023-05-12T06:22:52;100301.06;;;17.28;32.76
64679;BME280;51094;53.864;27.676;2023-05-12T06:25:19;100182.22;;;16.61;31.03
64679;BME280;51094;53.864;27.676;2023-05-12T06:27:49;100316.28;;;17.46;32.57
64679;BME280;51094;53.864;27.676;2023-05-12T06:30:17;100300.31;;;17.58;32.44
64679;BME280;51094;53.864;27.676;2023-05-12T06:32:44;100303.78;;;17.70;32.25
64679;BME280;51094;53.864;27.676;2023-05-12T06:35:11;100283.56;;;17.71;32.69
64679;BME280;51094;53.864;27.676;2023-05-12T06:37:38;100303.09;;;17.99;31.69
64679;BME280;51094;53.864;27.676;2023-05-12T06:40:05;100253.53;;;17.73;30.84
64679;BME280;51094;53.864;27.676;2023-05-12T06:42:32;100241.75;;;17.77;31.17
64679;BME280;51094;53.864;27.676;2023-05-12T06:45:07;100170.69;;;17.47;31.17
64679;BME280;51094;53.864;27.676;2023-05-12T06:47:33;100189.97;;;17.68;31.88
64679;BME280;51094;53.864;27.676;2023-05-12T06:50:00;100308.06;;;18.53;31.72
64679;BME280;51094;53.864;27.676;2023-05-12T06:52:27;100272.81;;;18.44;30.80
64679;BME280;51094;53.864;27.676;2023-05-12T06:54:54;100302.84;;;18.63;28.52
64679;BME280;51094;53.864;27.676;2023-05-12T06:57:21;100219.25;;;18.24;30.54
64679;BME280;51094;53.864;27.676;2023-05-12T06:59:48;100304.00;;;18.89;30.09
64679;BME280;51094;53.864;27.676;2023-05-12T07:02:15;100256.13;;;18.74;29.34
64679;BME280;51094;53.864;27.676;2023-05-12T07:04:42;100301.50;;;19.07;28.69
64679;BME280;51094;53.864;27.676;2023-05-12T07:07:09;100284.59;;;19.00;28.73
64679;BME280;51094;53.864;27.676;2023-05-12T07:09:36;100300.28;;;19.30;28.25
64679;BME280;51094;53.864;27.676;2023-05-12T07:12:04;100225.38;;;18.94;27.71
64679;BME280;51094;53.864;27.676;2023-05-12T07:14:31;100246.84;;;19.09;27.40
64679;BME280;51094;53.864;27.676;2023-05-12T07:16:58;100163.91;;;18.84;28.74
64679;BME280;51094;53.864;27.676;2023-05-12T07:19:24;100229.78;;;19.32;27.85
64679;BME280;51094;53.864;27.676;2023-05-12T07:21:51;100287.06;;;19.78;27.16
64679;BME280;51094;53.864;27.676;2023-05-12T07:24:18;100286.16;;;19.97;26.44
64679;BME280;51094;53.864;27.676;2023-05-12T07:26:45;100202.97;;;19.46;26.50
64679;BME280;51094;53.864;27.676;2023-05-12T07:29:12;100255.53;;;19.77;27.96
64679;BME280;51094;53.864;27.676;2023-05-12T07:31:39;100164.41;;;19.36;27.19
64679;BME280;51094;53.864;27.676;2023-05-12T07:34:06;100236.16;;;19.96;27.45
64679;BME280;51094;53.864;27.676;2023-05-12T07:36:34;100289.66;;;20.35;27.18
64679;BME280;51094;53.864;27.676;2023-05-12T07:39:01;100294.22;;;20.42;27.10
64679;BME280;51094;53.864;27.676;2023-05-12T07:41:27;100207.22;;;20.04;26.86
64679;BME280;51094;53.864;27.676;2023-05-12T07:43:54;100247.22;;;20.36;26.45
64679;BME280;51094;53.864;27.676;2023-05-12T07:46:21;100218.94;;;20.29;26.56
64679;BME280;51094;53.864;27.676;2023-05-12T07:48:48;100282.00;;;20.69;26.04
64679;BME280;51094;53.864;27.676;2023-05-12T07:51:15;100164.97;;;19.86;26.53
64679;BME280;51094;53.864;27.676;2023-05-12T07:53:41;100250.34;;;20.59;25.77
64679;BME280;51094;53.864;27.676;2023-05-12T07:56:08;100290.47;;;20.90;26.05
64679;BME280;51094;53.864;27.676;2023-05-12T07:58:35;100265.03;;;20.71;26.05
64679;BME280;51094;53.864;27.676;2023-05-12T08:01:02;100287.06;;;20.80;25.74
64679;BME280;51094;53.864;27.676;2023-05-12T08:03:32;100243.25;;;20.59;26.00
64679;BME280;51094;53.864;27.676;2023-05-12T08:06:00;100276.28;;;21.09;25.54
64679;BME280;51094;53.864;27.676;2023-05-12T08:08:29;100278.25;;;21.24;26.33
64679;BME280;51094;53.864;27.676;2023-05-12T08:10:55;100272.16;;;21.24;25.97
64679;BME280;51094;53.864;27.676;2023-05-12T08:13:22;100251.06;;;21.14;24.01
64679;BME280;51094;53.864;27.676;2023-05-12T08:15:49;100269.50;;;21.42;26.27
64679;BME280;51094;53.864;27.676;2023-05-12T08:18:16;100267.75;;;21.50;24.27
64679;BME280;51094;53.864;27.676;2023-05-12T08:20:43;100291.31;;;21.62;24.95
64679;BME280;51094;53.864;27.676;2023-05-12T08:23:10;100271.06;;;21.78;26.17
64679;BME280;51094;53.864;27.676;2023-05-12T08:25:37;100272.47;;;21.90;24.68
64679;BME280;51094;53.864;27.676;2023-05-12T08:28:06;100270.03;;;21.97;24.31
64679;BME280;51094;53.864;27.676;2023-05-12T08:30:32;100160.34;;;21.40;24.39
64679;BME280;51094;53.864;27.676;2023-05-12T08:32:59;100268.31;;;22.14;24.23
64679;BME280;51094;53.864;27.676;2023-05-12T08:35:27;100146.44;;;21.64;24.92
64679;BME280;51094;53.864;27.676;2023-05-12T08:37:57;100266.53;;;22.65;23.79
64679;BME280;51094;53.864;27.676;2023-05-12T08:40:29;100265.53;;;22.66;23.39
64679;BME280;51094;53.864;27.676;2023-05-12T08:43:06;100239.69;;;22.68;23.60
64679;BME280;51094;53.864;27.676;2023-05-12T08:45:39;100259.63;;;22.80;24.99
64679;BME280;51094;53.864;27.676;2023-05-12T08:48:09;100258.56;;;22.65;22.83
64679;BME280;51094;53.864;27.676;2023-05-12T08:50:37;100199.16;;;22.25;24.47
64679;BME280;51094;53.864;27.676;2023-05-12T08:53:06;100240.34;;;22.70;24.48
64679;BME280;51094;53.864;27.676;2023-05-12T08:55:38;100251.72;;;23.12;24.55
64679;BME280;51094;53.864;27.676;2023-05-12T08:58:10;100202.13;;;22.97;23.69
64679;BME280;51094;53.864;27.676;2023-05-12T09:00:38;100259.69;;;23.37;23.05
64679;BME280;51094;53.864;27.676;2023-05-12T09:03:05;100236.47;;;23.63;22.58
64679;BME280;51094;53.864;27.676;2023-05-12T09:05:33;100224.50;;;23.67;22.07
64679;BME280;51094;53.864;27.676;2023-05-12T09:08:00;100277.38;;;23.93;22.42
64679;BME280;51094;53.864;27.676;2023-05-12T09:10:27;100154.72;;;23.10;21.02
64679;BME280;51094;53.864;27.676;2023-05-12T09:13:02;100050.44;;;21.53;22.08
64679;BME280;51094;53.864;27.676;2023-05-12T09:15:42;100152.97;;;21.51;21.75
64679;BME280;51094;53.864;27.676;2023-05-12T09:18:10;100115.50;;;21.12;22.45
64679;BME280;51094;53.864;27.676;2023-05-12T09:20:37;100205.28;;;21.57;22.52
64679;BME280;51094;53.864;27.676;2023-05-12T09:23:15;100204.94;;;21.35;23.21
64679;BME280;51094;53.864;27.676;2023-05-12T09:25:42;100230.69;;;22.02;24.73
64679;BME280;51094;53.864;27.676;2023-05-12T09:28:09;100224.97;;;22.23;22.76
64679;BME280;51094;53.864;27.676;2023-05-12T09:30:36;100226.25;;;22.03;21.68
64679;BME280;51094;53.864;27.676;2023-05-12T09:33:08;100224.94;;;21.55;22.32
64679;BME280;51094;53.864;27.676;2023-05-12T09:35:43;100078.44;;;20.61;22.89
64679;BME280;51094;53.864;27.676;2023-05-12T09:38:12;100235.50;;;22.41;24.06
64679;BME280;51094;53.864;27.676;2023-05-12T09:40:39;100213.41;;;23.23;22.97
64679;BME280;51094;53.864;27.676;2023-05-12T09:43:07;100219.69;;;23.46;22.76
64679;BME280;51094;53.864;27.676;2023-05-12T09:45:35;100122.75;;;22.79;21.64
64679;BME280;51094;53.864;27.676;2023-05-12T09:48:09;100217.91;;;23.31;21.58
64679;BME280;51094;53.864;27.676;2023-05-12T09:50:48;100178.91;;;23.39;22.60
64679;BME280;51094;53.864;27.676;2023-05-12T09:53:16;100139.19;;;23.70;23.23
64679;BME280;51094;53.864;27.676;2023-05-12T09:55:46;100081.16;;;23.51;22.77
64679;BME280;51094;53.864;27.676;2023-05-12T09:58:18;100186.63;;;24.74;22.31
64679;BME280;51094;53.864;27.676;2023-05-12T10:00:45;100174.69;;;24.70;21.31
64679;BME280;51094;53.864;27.676;2023-05-12T10:03:16;100187.94;;;24.25;21.11
64679;BME280;51094;53.864;27.676;2023-05-12T10:05:49;100220.22;;;24.52;20.62
64679;BME280;51094;53.864;27.676;2023-05-12T10:08:24;100208.28;;;24.94;20.23
64679;BME280;51094;53.864;27.676;2023-05-12T10:10:52;100139.94;;;24.26;19.69
64679;BME280;51094;53.864;27.676;2023-05-12T10:13:21;100115.53;;;23.92;18.66
64679;BME280;51094;53.864;27.676;2023-05-12T10:15:48;100151.59;;;24.94;19.10
64679;BME280;51094;53.864;27.676;2023-05-12T10:18:17;100198.47;;;25.70;17.88
64679;BME280;51094;53.864;27.676;2023-05-12T10:20:46;100166.16;;;25.20;18.58
64679;BME280;51094;53.864;27.676;2023-05-12T10:23:17;99714.75;;;22.14;19.19
64679;BME280;51094;53.864;27.676;2023-05-12T10:25:45;100096.84;;;23.77;20.64
64679;BME280;51094;53.864;27.676;2023-05-12T10:28:13;100172.22;;;23.68;21.40
64679;BME280;51094;53.864;27.676;2023-05-12T10:30:41;100054.97;;;22.52;21.06
64679;BME280;51094;53.864;27.676;2023-05-12T10:33:09;100140.28;;;22.64;21.24
64679;BME280;51094;53.864;27.676;2023-05-12T10:35:38;100194.47;;;22.77;23.90
64679;BME280;51094;53.864;27.676;2023-05-12T10:38:10;100124.53;;;21.96;22.60
64679;BME280;51094;53.864;27.676;2023-05-12T10:40:58;100202.91;;;22.73;23.29
64679;BME280;51094;53.864;27.676;2023-05-12T10:43:29;100174.59;;;22.73;22.66
64679;BME280;51094;53.864;27.676;2023-05-12T10:46:17;100189.69;;;23.13;22.32
64679;BME280;51094;53.864;27.676;2023-05-12T10:51:48;100137.03;;;24.67;21.12
64679;BME280;51094;53.864;27.676;2023-05-12T10:54:21;100184.16;;;25.85;20.76
64679;BME280;51094;53.864;27.676;2023-05-12T10:56:50;100125.28;;;26.74;19.39
64679;BME280;51094;53.864;27.676;2023-05-12T10:59:20;100157.75;;;28.70;16.73
64679;BME280;51094;53.864;27.676;2023-05-12T11:02:01;100176.31;;;30.28;16.56
64679;BME280;51094;53.864;27.676;2023-05-12T11:07:06;100150.59;;;31.70;13.63
64679;BME280;51094;53.864;27.676;2023-05-12T11:09:37;100188.06;;;31.47;14.78
64679;BME280;51094;53.864;27.676;2023-05-12T11:12:19;100171.88;;;31.90;13.94
64679;BME280;51094;53.864;27.676;2023-05-12T11:14:46;100103.00;;;31.89;14.00
64679;BME280;51094;53.864;27.676;2023-05-12T11:17:14;100167.56;;;32.37;13.57
64679;BME280;51094;53.864;27.676;2023-05-12T11:19:48;100167.16;;;33.40;13.34
64679;BME280;51094;53.864;27.676;2023-05-12T11:22:18;100136.94;;;35.09;10.80
64679;BME280;51094;53.864;27.676;2023-05-12T11:24:46;100153.28;;;37.09;9.34
64679;BME280;51094;53.864;27.676;2023-05-12T11:27:15;100169.94;;;38.98;7.93
64679;BME280;51094;53.864;27.676;2023-05-12T11:29:44;100157.47;;;40.41;6.96
64679;BME280;51094;53.864;27.676;2023-05-12T11:32:14;100181.38;;;42.13;6.30
64679;BME280;51094;53.864;27.676;2023-05-12T11:34:41;100078.94;;;39.60;8.05
64679;BME280;51094;53.864;27.676;2023-05-12T11:37:08;100140.66;;;35.80;8.80
64679;BME280;51094;53.864;27.676;2023-05-12T11:39:35;100153.38;;;32.71;10.83
64679;BME280;51094;53.864;27.676;2023-05-12T11:42:03;100130.47;;;30.30;12.27
64679;BME280;51094;53.864;27.676;2023-05-12T11:44:48;100160.50;;;28.96;14.15
64679;BME280;51094;53.864;27.676;2023-05-12T11:47:17;100154.63;;;27.86;15.45
64679;BME280;51094;53.864;27.676;2023-05-12T11:52:17;100156.59;;;26.29;16.41
64679;BME280;51094;53.864;27.676;2023-05-12T11:54:49;100104.13;;;25.35;16.62
64679;BME280;51094;53.864;27.676;2023-05-12T11:57:28;100084.41;;;25.29;16.81
64679;BME280;51094;53.864;27.676;2023-05-12T12:00:05;100160.34;;;25.40;16.85
64679;BME280;51094;53.864;27.676;2023-05-12T12:02:34;100094.53;;;32.87;12.86
64679;BME280;51094;53.864;27.676;2023-05-12T12:05:03;100139.16;;;39.38;9.66
64679;BME280;51094;53.864;27.676;2023-05-12T12:07:35;99977.28;;;34.77;9.43
64679;BME280;51094;53.864;27.676;2023-05-12T12:10:16;100139.78;;;32.06;11.54
64679;BME280;51094;53.864;27.676;2023-05-12T12:12:44;100052.06;;;29.38;12.66
64679;BME280;51094;53.864;27.676;2023-05-12T12:15:11;100130.97;;;28.43;13.53
64679;BME280;51094;53.864;27.676;2023-05-12T12:17:38;100132.53;;;27.36;14.22
64679;BME280;51094;53.864;27.676;2023-05-12T12:20:07;100145.94;;;26.29;16.43
64679;BME280;51094;53.864;27.676;2023-05-12T12:22:35;100132.72;;;25.56;17.42
64679;BME280;51094;53.864;27.676;2023-05-12T12:25:02;100131.94;;;25.17;16.34
64679;BME280;51094;53.864;27.676;2023-05-12T12:27:29;100124.25;;;25.52;17.27
64679;BME280;51094;53.864;27.676;2023-05-12T12:29:56;100120.69;;;30.98;13.28
64679;BME280;51094;53.864;27.676;2023-05-12T12:32:23;100104.22;;;29.42;14.73
64679;BME280;51094;53.864;27.676;2023-05-12T12:34:50;100128.22;;;31.15;13.45
64679;BME280;51094;53.864;27.676;2023-05-12T12:37:17;100113.63;;;37.40;10.07
64679;BME280;51094;53.864;27.676;2023-05-12T12:39:44;100051.31;;;41.56;8.12
64679;BME280;51094;53.864;27.676;2023-05-12T12:42:13;100043.25;;;44.13;4.92
64679;BME280;51094;53.864;27.676;2023-05-12T12:44:41;100093.19;;;46.16;4.00
64679;BME280;51094;53.864;27.676;2023-05-12T12:47:08;100133.31;;;47.36;3.11
64679;BME280;51094;53.864;27.676;2023-05-12T12:49:35;100067.81;;;47.51;3.83
64679;BME280;51094;53.864;27.676;2023-05-12T12:52:02;100077.44;;;42.69;4.63
64679;BME280;51094;53.864;27.676;2023-05-12T12:54:29;100101.66;;;38.03;6.76
64679;BME280;51094;53.864;27.676;2023-05-12T12:56:56;100109.09;;;34.58;8.66
64679;BME280;51094;53.864;27.676;2023-05-12T12:59:23;100076.13;;;31.70;10.81
64679;BME280;51094;53.864;27.676;2023-05-12T13:01:50;100072.84;;;29.56;12.57
64679;BME280;51094;53.864;27.676;2023-05-12T13:04:17;100025.09;;;27.81;13.00